Time;durP1;ratioP1;P1;durP2;ratioP2;P2;SDS_P1;SDS_P2;PMS_P1;PMS_P2;Temp;Humidity;BMP_temperature;BMP_pressure;BME280_temperature;BME280_humidity;BME280_pressure;Samples;Min_cycle;Max_cycle;Signal;HPM_P1;HPM_P2
2023/12/05 00:01:09;;;;;;;50.63;28.00;;;;;;;;;;5082261;28;20426;-79
2023/12/05 00:03:35;;;;;;;45.50;25.57;;;;;;;;;;5082675;28;20368;-79
2023/12/05 00:06:01;;;;;;;41.92;24.58;;;;;;;;;;5080817;28;20409;-79
2023/12/05 00:08:27;;;;;;;39.60;24.23;;;;;;;;;;5080387;28;20388;-79
2023/12/05 00:10:53;;;;;;;42.72;24.80;;;;;;;;;;5082074;28;20415;-79
2023/12/05 00:13:19;;;;;;;50.55;28.58;;;;;;;;;;5082597;28;20750;-79
2023/12/05 00:15:45;;;;;;;43.78;25.17;;;;;;;;;;5092183;28;20412;-79
2023/12/05 00:18:11;;;;;;;42.38;24.58;;;;;;;;;;5103514;28;20378;-79
2023/12/05 00:20:37;;;;;;;46.78;26.23;;;;;;;;;;5103015;28;20374;-79
2023/12/05 00:23:03;;;;;;;48.13;26.63;;;;;;;;;;5103984;28;20413;-79
2023/12/05 00:25:29;;;;;;;43.75;25.30;;;;;;;;;;5101731;28;20382;-79
2023/12/05 00:27:55;;;;;;;42.42;24.55;;;;;;;;;;5102722;28;20386;-79
2023/12/05 00:30:21;;;;;;;41.00;24.70;;;;;;;;;;5101195;28;20473;-79
2023/12/05 00:32:47;;;;;;;37.40;23.23;;;;;;;;;;5100383;28;20380;-79
2023/12/05 00:35:14;;;;;;;35.78;22.33;;;;;;;;;;5087504;28;20414;-79
2023/12/05 00:37:40;;;;;;;37.35;23.05;;;;;;;;;;5079062;28;20383;-79
2023/12/05 00:40:07;;;;;;;40.38;23.23;;;;;;;;;;5078321;28;20384;-79
2023/12/05 00:42:33;;;;;;;39.50;22.88;;;;;;;;;;5079536;28;20446;-80
2023/12/05 00:45:01;;;;;;;34.90;21.00;;;;;;;;;;5079930;28;20738;-79
2023/12/05 00:47:27;;;;;;;37.60;21.10;;;;;;;;;;5078487;28;20529;-79
2023/12/05 00:49:53;;;;;;;34.65;21.60;;;;;;;;;;5068941;28;20434;-79
2023/12/05 00:52:20;;;;;;;36.40;21.80;;;;;;;;;;5058187;28;20810;-79
2023/12/05 00:54:46;;;;;;;39.45;22.65;;;;;;;;;;5058166;28;20405;-79
2023/12/05 00:57:11;;;;;;;33.88;21.77;;;;;;;;;;5058846;28;20882;-79
2023/12/05 00:59:37;;;;;;;37.53;22.20;;;;;;;;;;5058570;28;20483;-80
2023/12/05 01:02:04;;;;;;;38.13;22.13;;;;;;;;;;5057973;28;20375;-79
2023/12/05 01:04:30;;;;;;;38.40;21.85;;;;;;;;;;5058340;28;20381;-79
2023/12/05 01:06:56;;;;;;;36.28;21.40;;;;;;;;;;5056924;28;20480;-79
2023/12/05 01:09:22;;;;;;;33.78;20.75;;;;;;;;;;5067603;28;20876;-79
2023/12/05 01:11:48;;;;;;;34.03;21.08;;;;;;;;;;5077690;28;20384;-79
2023/12/05 01:14:14;;;;;;;33.65;20.77;;;;;;;;;;5077721;28;20379;-80
2023/12/05 01:16:43;;;;;;;31.52;20.35;;;;;;;;;;5078470;28;20404;-79
2023/12/05 01:19:09;;;;;;;30.67;20.33;;;;;;;;;;5098351;28;20455;-80
2023/12/05 01:21:35;;;;;;;30.40;19.30;;;;;;;;;;5097698;28;20374;-79
2023/12/05 01:24:01;;;;;;;28.98;19.00;;;;;;;;;;5098772;28;20378;-79
2023/12/05 01:26:27;;;;;;;26.52;18.20;;;;;;;;;;5098115;28;20847;-80
2023/12/05 01:28:54;;;;;;;26.30;17.67;;;;;;;;;;5098642;28;20381;-79
2023/12/05 01:31:20;;;;;;;25.83;18.00;;;;;;;;;;5099036;28;20854;-79
2023/12/05 01:33:46;;;;;;;25.27;17.85;;;;;;;;;;5098851;28;20394;-79
2023/12/05 01:36:12;;;;;;;25.30;17.75;;;;;;;;;;5099627;28;20495;-79
2023/12/05 01:38:39;;;;;;;23.70;16.80;;;;;;;;;;5100126;28;20397;-79
2023/12/05 01:41:06;;;;;;;24.63;16.88;;;;;;;;;;5099773;28;20382;-80
2023/12/05 01:43:31;;;;;;;26.88;17.58;;;;;;;;;;5099468;28;20376;-80
2023/12/05 01:45:58;;;;;;;28.23;18.58;;;;;;;;;;5100458;28;20417;-80
2023/12/05 01:48:24;;;;;;;33.95;20.92;;;;;;;;;;5100847;28;20418;-80
2023/12/05 01:50:54;;;;;;;34.25;20.80;;;;;;;;;;5100092;28;20374;-80
2023/12/05 01:53:22;;;;;;;35.50;22.23;;;;;;;;;;5101038;28;20501;-80
2023/12/05 01:55:48;;;;;;;32.17;20.92;;;;;;;;;;5101034;28;20401;-80
2023/12/05 01:58:15;;;;;;;29.77;20.63;;;;;;;;;;5100761;28;20387;-80
2023/12/05 02:00:43;;;;;;;31.45;20.65;;;;;;;;;;5100046;28;20404;-80
2023/12/05 02:03:11;;;;;;;30.08;20.67;;;;;;;;;;5099903;28;20732;-80
2023/12/05 02:05:38;;;;;;;29.13;19.42;;;;;;;;;;5099163;28;20412;-80
2023/12/05 02:08:04;;;;;;;29.40;19.73;;;;;;;;;;5099097;28;20409;-80
2023/12/05 02:10:30;;;;;;;26.15;18.58;;;;;;;;;;5099266;28;20397;-80
2023/12/05 02:12:56;;;;;;;29.85;20.02;;;;;;;;;;5099670;28;20389;-80
2023/12/05 02:15:22;;;;;;;30.83;19.55;;;;;;;;;;5082134;28;20411;-80
2023/12/05 02:17:48;;;;;;;30.10;19.85;;;;;;;;;;5082826;28;20846;-80
2023/12/05 02:20:22;;;;;;;28.23;19.25;;;;;;;;;;5099274;28;20374;-80
2023/12/05 02:22:48;;;;;;;28.93;19.47;;;;;;;;;;5100400;28;20378;-80
2023/12/05 02:25:25;;;;;;;26.60;18.65;;;;;;;;;;5101312;28;20382;-80
2023/12/05 02:27:52;;;;;;;29.13;19.70;;;;;;;;;;5099896;28;20503;-80
2023/12/05 02:30:18;;;;;;;33.00;20.92;;;;;;;;;;5100868;28;20382;-80
2023/12/05 02:32:44;;;;;;;32.38;20.90;;;;;;;;;;5100835;28;20370;-80
2023/12/05 02:35:13;;;;;;;35.85;22.30;;;;;;;;;;5100859;28;21182;-80
2023/12/05 02:38:09;;;;;;;32.55;21.00;;;;;;;;;;5082932;28;20427;-80
2023/12/05 02:40:49;;;;;;;33.83;21.20;;;;;;;;;;5061695;28;20425;-80
2023/12/05 02:43:19;;;;;;;34.88;20.90;;;;;;;;;;5080457;28;20487;-80
2023/12/05 02:45:47;;;;;;;33.47;20.35;;;;;;;;;;5060510;28;20407;-80
2023/12/05 02:48:13;;;;;;;29.30;20.25;;;;;;;;;;5077993;28;20462;-80
2023/12/05 02:50:40;;;;;;;28.15;19.10;;;;;;;;;;5079964;28;20402;-80
2023/12/05 02:53:06;;;;;;;31.90;20.60;;;;;;;;;;5080352;28;20393;-80
2023/12/05 02:55:32;;;;;;;30.10;19.45;;;;;;;;;;5080142;28;20416;-80
2023/12/05 02:57:58;;;;;;;29.70;19.98;;;;;;;;;;5080294;28;20380;-80
2023/12/05 03:00:24;;;;;;;30.52;19.23;;;;;;;;;;5080645;28;20399;-80
2023/12/05 03:02:50;;;;;;;31.90;19.80;;;;;;;;;;5082361;28;20876;-80
2023/12/05 03:05:16;;;;;;;31.43;20.57;;;;;;;;;;5084543;28;20383;-80
2023/12/05 03:07:42;;;;;;;32.67;19.88;;;;;;;;;;5083858;28;20392;-80
2023/12/05 03:10:08;;;;;;;31.50;20.20;;;;;;;;;;5083888;28;20395;-80
2023/12/05 03:12:34;;;;;;;33.85;22.00;;;;;;;;;;5083915;28;20390;-80
2023/12/05 03:15:00;;;;;;;36.17;21.85;;;;;;;;;;5084725;28;20806;-80
2023/12/05 03:17:26;;;;;;;41.22;24.20;;;;;;;;;;5082946;28;20384;-80
2023/12/05 03:19:52;;;;;;;39.10;23.10;;;;;;;;;;5095564;28;20386;-80
2023/12/05 03:22:18;;;;;;;36.72;22.42;;;;;;;;;;5104191;28;20378;-80
2023/12/05 03:24:44;;;;;;;33.28;21.33;;;;;;;;;;5103758;28;20374;-80
2023/12/05 03:27:10;;;;;;;31.65;21.38;;;;;;;;;;5103964;28;20370;-80
2023/12/05 03:29:36;;;;;;;28.97;19.67;;;;;;;;;;5104111;28;21043;-80
2023/12/05 03:32:03;;;;;;;33.85;21.58;;;;;;;;;;5104184;28;20413;-80
2023/12/05 03:34:32;;;;;;;30.10;19.88;;;;;;;;;;5104562;28;20408;-80
2023/12/05 03:36:58;;;;;;;28.37;19.13;;;;;;;;;;5104627;28;20470;-80
2023/12/05 03:39:24;;;;;;;26.63;19.25;;;;;;;;;;5104866;28;20468;-80
2023/12/05 03:41:50;;;;;;;29.65;19.63;;;;;;;;;;5103844;28;20385;-80
2023/12/05 03:44:16;;;;;;;26.00;18.63;;;;;;;;;;5104483;28;20816;-80
2023/12/05 03:46:42;;;;;;;25.90;18.65;;;;;;;;;;5104291;28;20418;-80
2023/12/05 03:49:08;;;;;;;26.55;18.58;;;;;;;;;;5104336;28;20385;-81
2023/12/05 03:51:34;;;;;;;26.20;18.60;;;;;;;;;;5104259;28;20375;-80
2023/12/05 03:54:00;;;;;;;24.98;18.45;;;;;;;;;;5103825;28;20434;-80
2023/12/05 03:56:26;;;;;;;27.63;18.58;;;;;;;;;;5104191;28;20489;-80
2023/12/05 03:58:52;;;;;;;26.67;18.20;;;;;;;;;;5103596;28;20385;-80
2023/12/05 04:01:18;;;;;;;29.58;19.13;;;;;;;;;;5104172;28;20782;-80
2023/12/05 04:03:44;;;;;;;27.07;18.87;;;;;;;;;;5104873;28;20378;-80
2023/12/05 04:06:18;;;;;;;29.20;19.70;;;;;;;;;;5105357;28;20405;-80
2023/12/05 04:08:44;;;;;;;27.30;18.20;;;;;;;;;;5106017;28;20433;-80
2023/12/05 04:11:10;;;;;;;27.85;18.20;;;;;;;;;;5104410;28;20833;-80
2023/12/05 04:13:36;;;;;;;30.88;19.50;;;;;;;;;;5103120;28;20382;-80
2023/12/05 04:16:03;;;;;;;27.88;18.80;;;;;;;;;;5105026;28;20903;-80
2023/12/05 04:18:29;;;;;;;26.20;17.98;;;;;;;;;;5104138;28;20382;-80
2023/12/05 04:20:54;;;;;;;26.80;18.58;;;;;;;;;;5090978;28;20441;-80
2023/12/05 04:23:20;;;;;;;29.75;18.80;;;;;;;;;;5083183;28;20861;-80
2023/12/05 04:25:46;;;;;;;29.13;19.33;;;;;;;;;;5083750;28;20395;-80
2023/12/05 04:28:12;;;;;;;22.58;16.88;;;;;;;;;;5083682;28;20429;-80
2023/12/05 04:30:38;;;;;;;24.48;17.48;;;;;;;;;;5084332;28;20810;-80
2023/12/05 04:33:04;;;;;;;28.20;18.88;;;;;;;;;;5083971;28;20423;-80
2023/12/05 04:35:30;;;;;;;24.80;17.88;;;;;;;;;;5083899;28;20415;-80
2023/12/05 04:37:56;;;;;;;26.27;18.10;;;;;;;;;;5084539;28;20384;-81
2023/12/05 04:40:22;;;;;;;28.75;18.98;;;;;;;;;;5084971;28;20394;-80
2023/12/05 04:42:49;;;;;;;28.20;19.33;;;;;;;;;;5084508;28;20376;-81
2023/12/05 04:45:15;;;;;;;26.33;18.48;;;;;;;;;;5084049;28;20374;-81
2023/12/05 04:47:41;;;;;;;28.30;19.00;;;;;;;;;;5080508;28;20482;-81
2023/12/05 04:50:07;;;;;;;29.15;19.73;;;;;;;;;;5084000;28;20383;-81
2023/12/05 04:52:33;;;;;;;26.63;18.88;;;;;;;;;;5084881;28;20405;-80
2023/12/05 04:54:59;;;;;;;29.50;18.83;;;;;;;;;;5083745;28;20960;-81
2023/12/05 04:57:25;;;;;;;25.45;17.65;;;;;;;;;;5084170;28;20368;-81
2023/12/05 04:59:51;;;;;;;29.15;18.40;;;;;;;;;;5084366;28;20380;-81
2023/12/05 05:02:24;;;;;;;26.65;18.35;;;;;;;;;;5083729;28;20438;-81
2023/12/05 05:04:50;;;;;;;24.10;17.33;;;;;;;;;;5085085;28;20384;-80
2023/12/05 05:07:16;;;;;;;24.52;17.73;;;;;;;;;;5084384;28;20421;-80
2023/12/05 05:09:42;;;;;;;27.67;18.70;;;;;;;;;;5084552;28;20391;-80
2023/12/05 05:12:09;;;;;;;29.23;19.25;;;;;;;;;;5084618;28;20383;-81
2023/12/05 05:14:36;;;;;;;27.45;18.60;;;;;;;;;;5083326;28;20414;-81
2023/12/05 05:17:03;;;;;;;22.90;17.30;;;;;;;;;;5084035;28;20850;-80
2023/12/05 05:19:29;;;;;;;29.30;21.08;;;;;;;;;;5083958;28;20429;-81
2023/12/05 05:21:55;;;;;;;29.27;20.23;;;;;;;;;;5085081;28;20849;-80
2023/12/05 05:24:21;;;;;;;26.48;18.92;;;;;;;;;;5084545;28;20383;-80
2023/12/05 05:26:47;;;;;;;24.00;17.90;;;;;;;;;;5084255;28;20378;-80
2023/12/05 05:29:13;;;;;;;24.08;17.90;;;;;;;;;;5084263;28;20846;-80
2023/12/05 05:31:39;;;;;;;25.13;17.50;;;;;;;;;;5084517;28;20379;-80
2023/12/05 05:34:05;;;;;;;24.63;18.35;;;;;;;;;;5083883;28;20402;-81
2023/12/05 05:36:31;;;;;;;23.90;17.60;;;;;;;;;;5084028;28;20418;-80
2023/12/05 05:38:57;;;;;;;26.53;18.03;;;;;;;;;;5083964;28;20439;-80
2023/12/05 05:41:23;;;;;;;28.17;18.70;;;;;;;;;;5083922;28;20703;-81
2023/12/05 05:43:49;;;;;;;25.33;18.30;;;;;;;;;;5083764;28;20391;-80
2023/12/05 05:46:15;;;;;;;27.30;19.23;;;;;;;;;;5083254;28;20403;-80
2023/12/05 05:48:41;;;;;;;28.60;18.80;;;;;;;;;;5081985;28;20402;-81
2023/12/05 05:51:07;;;;;;;34.10;20.17;;;;;;;;;;5083954;28;20857;-81
2023/12/05 05:53:33;;;;;;;32.00;20.20;;;;;;;;;;5083520;28;20382;-81
2023/12/05 05:56:02;;;;;;;28.73;19.70;;;;;;;;;;5083560;28;20404;-81
2023/12/05 05:58:28;;;;;;;27.08;18.60;;;;;;;;;;5083426;28;20406;-80
2023/12/05 06:00:54;;;;;;;32.40;19.73;;;;;;;;;;5083115;28;20386;-80
2023/12/05 06:03:20;;;;;;;26.60;19.00;;;;;;;;;;5084266;28;20368;-81
2023/12/05 06:05:46;;;;;;;25.25;17.85;;;;;;;;;;5084515;28;20751;-81
2023/12/05 06:08:12;;;;;;;26.77;18.30;;;;;;;;;;5084202;28;20389;-81
2023/12/05 06:10:42;;;;;;;25.15;16.98;;;;;;;;;;5083024;28;20437;-80
2023/12/05 06:13:08;;;;;;;22.20;16.55;;;;;;;;;;5083960;28;20451;-80
2023/12/05 06:15:34;;;;;;;21.63;15.90;;;;;;;;;;5084078;28;20407;-80
2023/12/05 06:18:00;;;;;;;21.40;16.10;;;;;;;;;;5083524;28;20467;-81
2023/12/05 06:20:26;;;;;;;23.85;16.83;;;;;;;;;;5084093;28;20435;-80
2023/12/05 06:22:52;;;;;;;22.67;16.98;;;;;;;;;;5085225;28;20392;-80
2023/12/05 06:25:18;;;;;;;20.17;16.37;;;;;;;;;;5084129;28;20470;-81
2023/12/05 06:27:46;;;;;;;23.13;16.88;;;;;;;;;;5083511;28;20930;-80
2023/12/05 06:30:12;;;;;;;24.13;17.35;;;;;;;;;;5083839;28;20873;-81
2023/12/05 06:32:38;;;;;;;29.38;20.95;;;;;;;;;;5083775;28;20398;-81
2023/12/05 06:35:04;;;;;;;32.55;19.98;;;;;;;;;;5083536;28;20771;-80
2023/12/05 06:37:30;;;;;;;29.05;19.90;;;;;;;;;;5086074;28;20470;-81
2023/12/05 06:39:57;;;;;;;29.30;19.70;;;;;;;;;;5087547;28;20391;-80
2023/12/05 06:42:23;;;;;;;33.50;21.60;;;;;;;;;;5087343;28;20795;-79
2023/12/05 06:44:49;;;;;;;25.05;17.73;;;;;;;;;;5086453;28;20383;-80
2023/12/05 06:47:15;;;;;;;25.58;18.70;;;;;;;;;;5084629;28;20612;-80
2023/12/05 06:49:43;;;;;;;26.00;17.95;;;;;;;;;;5085339;28;20726;-81
2023/12/05 06:52:11;;;;;;;23.60;17.50;;;;;;;;;;5087701;28;20960;-81
2023/12/05 06:54:38;;;;;;;39.25;26.45;;;;;;;;;;5085890;28;20439;-81
2023/12/05 06:57:04;;;;;;;43.88;28.30;;;;;;;;;;5086416;28;20394;-80
2023/12/05 06:59:30;;;;;;;39.75;25.38;;;;;;;;;;5087086;28;20793;-81
2023/12/05 07:01:56;;;;;;;31.45;21.95;;;;;;;;;;5086725;28;20383;-81
2023/12/05 07:04:22;;;;;;;31.30;21.53;;;;;;;;;;5085652;28;20506;-80
2023/12/05 07:06:48;;;;;;;32.70;21.85;;;;;;;;;;5084254;28;20374;-80
2023/12/05 07:09:14;;;;;;;31.70;20.90;;;;;;;;;;5072073;28;20431;-79
2023/12/05 07:11:40;;;;;;;27.65;19.85;;;;;;;;;;5085682;28;20376;-80
2023/12/05 07:14:08;;;;;;;26.98;19.52;;;;;;;;;;5084758;28;20430;-81
2023/12/05 07:16:36;;;;;;;29.70;20.25;;;;;;;;;;5084735;28;20731;-80
2023/12/05 07:19:02;;;;;;;28.60;20.23;;;;;;;;;;5086112;28;20387;-80
2023/12/05 07:21:28;;;;;;;26.52;19.75;;;;;;;;;;5084893;28;20376;-80
2023/12/05 07:23:54;;;;;;;25.67;19.30;;;;;;;;;;5084686;28;20372;-80
2023/12/05 07:26:20;;;;;;;27.13;19.08;;;;;;;;;;5084928;28;20966;-80
2023/12/05 07:28:46;;;;;;;27.92;19.60;;;;;;;;;;5084874;28;20407;-80
2023/12/05 07:31:12;;;;;;;28.67;18.42;;;;;;;;;;5085730;28;20950;-80
2023/12/05 07:33:38;;;;;;;29.45;20.55;;;;;;;;;;5084654;28;20383;-80
2023/12/05 07:36:05;;;;;;;24.33;18.50;;;;;;;;;;5084962;28;20407;-81
2023/12/05 07:38:32;;;;;;;27.80;19.27;;;;;;;;;;5084862;28;20407;-81
2023/12/05 07:40:58;;;;;;;28.80;19.33;;;;;;;;;;5086243;28;20371;-81
2023/12/05 07:43:24;;;;;;;26.88;19.30;;;;;;;;;;5084813;28;20384;-81
2023/12/05 07:45:50;;;;;;;30.48;19.23;;;;;;;;;;5085353;28;20414;-81
2023/12/05 07:48:16;;;;;;;29.02;19.95;;;;;;;;;;5084607;28;20488;-81
2023/12/05 07:50:43;;;;;;;28.30;18.65;;;;;;;;;;5083637;28;20742;-81
2023/12/05 07:53:09;;;;;;;27.90;19.77;;;;;;;;;;5084256;28;20454;-81
2023/12/05 07:55:35;;;;;;;29.67;19.13;;;;;;;;;;5085852;28;20411;-81
2023/12/05 07:58:01;;;;;;;31.02;20.17;;;;;;;;;;5085591;28;20372;-81
2023/12/05 08:00:28;;;;;;;28.42;19.38;;;;;;;;;;5084901;28;20372;-81
2023/12/05 08:02:54;;;;;;;30.43;20.50;;;;;;;;;;5085513;28;20376;-81
2023/12/05 08:05:20;;;;;;;27.20;19.00;;;;;;;;;;5085064;28;20382;-82
2023/12/05 08:07:46;;;;;;;25.92;18.65;;;;;;;;;;5086968;28;20392;-81
2023/12/05 08:10:12;;;;;;;31.52;21.35;;;;;;;;;;5085170;28;20388;-82
2023/12/05 08:12:38;;;;;;;28.93;19.90;;;;;;;;;;5085510;28;20502;-81
2023/12/05 08:15:04;;;;;;;29.40;20.15;;;;;;;;;;5085231;28;20887;-82
2023/12/05 08:17:31;;;;;;;31.45;20.50;;;;;;;;;;5086178;28;20394;-82
2023/12/05 08:19:57;;;;;;;30.63;20.95;;;;;;;;;;5085848;28;20848;-82
2023/12/05 08:22:25;;;;;;;31.15;20.42;;;;;;;;;;5084631;28;20390;-82
2023/12/05 08:24:51;;;;;;;31.00;20.70;;;;;;;;;;5066773;28;20382;-82
2023/12/05 08:27:17;;;;;;;32.20;21.10;;;;;;;;;;5065343;28;20817;-82
2023/12/05 08:29:43;;;;;;;31.25;20.90;;;;;;;;;;5065501;28;20385;-81
2023/12/05 08:32:09;;;;;;;32.70;22.37;;;;;;;;;;5066441;28;20537;-81
2023/12/05 08:34:35;;;;;;;35.53;22.65;;;;;;;;;;5065429;28;20459;-81
2023/12/05 08:37:01;;;;;;;31.80;21.00;;;;;;;;;;5064770;28;20385;-81
2023/12/05 08:39:27;;;;;;;25.83;17.88;;;;;;;;;;5065807;28;20484;-81
2023/12/05 08:41:53;;;;;;;28.88;19.73;;;;;;;;;;5067056;28;20881;-81
2023/12/05 08:44:22;;;;;;;25.63;19.10;;;;;;;;;;5084361;28;20738;-81
2023/12/05 08:46:48;;;;;;;30.13;19.23;;;;;;;;;;5084397;28;20453;-82
2023/12/05 08:49:14;;;;;;;28.75;19.90;;;;;;;;;;5084631;28;20383;-81
2023/12/05 08:51:40;;;;;;;26.90;19.20;;;;;;;;;;5085605;28;20418;-82
2023/12/05 08:54:06;;;;;;;26.50;19.60;;;;;;;;;;5083278;28;20385;-81
2023/12/05 08:56:32;;;;;;;28.33;20.73;;;;;;;;;;5080959;28;20469;-80
2023/12/05 08:59:01;;;;;;;29.42;19.70;;;;;;;;;;5081556;28;20375;-80
2023/12/05 09:01:28;;;;;;;31.98;20.02;;;;;;;;;;5080629;28;20409;-81
2023/12/05 09:03:55;;;;;;;32.40;20.60;;;;;;;;;;5083463;28;20382;-80
2023/12/05 09:06:20;;;;;;;28.33;20.37;;;;;;;;;;5080601;28;20410;-80
2023/12/05 09:08:46;;;;;;;27.15;19.55;;;;;;;;;;5081007;28;20896;-81
2023/12/05 09:11:13;;;;;;;32.50;21.95;;;;;;;;;;5081217;28;20383;-80
2023/12/05 09:13:39;;;;;;;29.27;20.42;;;;;;;;;;5079514;28;20387;-80
2023/12/05 09:16:05;;;;;;;29.00;20.23;;;;;;;;;;5078879;28;20403;-80
2023/12/05 09:18:31;;;;;;;36.10;23.02;;;;;;;;;;5078432;28;20958;-81
2023/12/05 09:20:57;;;;;;;37.75;23.90;;;;;;;;;;5078736;28;20384;-80
2023/12/05 09:23:24;;;;;;;32.37;22.17;;;;;;;;;;5078533;28;20556;-80
2023/12/05 09:25:50;;;;;;;31.20;21.40;;;;;;;;;;5077334;28;20385;-80
2023/12/05 09:28:16;;;;;;;31.23;21.85;;;;;;;;;;5077558;28;20384;-81
2023/12/05 09:30:42;;;;;;;28.80;20.92;;;;;;;;;;5077410;28;20394;-80
2023/12/05 09:33:08;;;;;;;36.53;23.03;;;;;;;;;;5076302;28;20460;-81
2023/12/05 09:35:34;;;;;;;31.42;21.65;;;;;;;;;;5076730;28;20404;-80
2023/12/05 09:38:02;;;;;;;29.77;20.15;;;;;;;;;;5076557;28;20372;-80
2023/12/05 09:40:31;;;;;;;38.25;23.80;;;;;;;;;;5077491;28;20439;-80
2023/12/05 09:43:00;;;;;;;36.45;23.27;;;;;;;;;;5075508;28;20419;-80
2023/12/05 09:45:29;;;;;;;31.52;20.50;;;;;;;;;;5077060;28;20408;-80
2023/12/05 09:47:59;;;;;;;38.40;24.70;;;;;;;;;;5076414;28;20445;-80
2023/12/05 09:50:25;;;;;;;31.13;21.58;;;;;;;;;;5077312;28;20409;-80
2023/12/05 09:52:51;;;;;;;28.48;19.33;;;;;;;;;;5076495;28;20387;-80
2023/12/05 09:55:18;;;;;;;27.73;19.25;;;;;;;;;;5074723;28;20742;-80
2023/12/05 09:57:44;;;;;;;24.85;18.17;;;;;;;;;;5073357;28;20440;-79
2023/12/05 10:00:10;;;;;;;31.15;19.27;;;;;;;;;;5074930;28;20486;-82
2023/12/05 10:02:40;;;;;;;23.95;16.23;;;;;;;;;;5074980;28;20379;-79
2023/12/05 10:05:08;;;;;;;23.60;17.00;;;;;;;;;;5074715;28;20910;-82
2023/12/05 10:07:34;;;;;;;30.33;19.33;;;;;;;;;;5074398;28;20386;-80
2023/12/05 10:10:03;;;;;;;31.53;20.70;;;;;;;;;;5074616;28;21190;-79
2023/12/05 10:12:30;;;;;;;26.50;18.90;;;;;;;;;;5073910;28;20437;-80
2023/12/05 10:14:59;;;;;;;30.55;20.17;;;;;;;;;;5073894;28;20504;-80
2023/12/05 10:17:26;;;;;;;30.25;20.20;;;;;;;;;;5074081;28;20372;-79
2023/12/05 10:19:52;;;;;;;27.98;20.45;;;;;;;;;;5073864;28;20375;-80
2023/12/05 10:22:18;;;;;;;30.13;20.17;;;;;;;;;;5074228;28;20406;-79
2023/12/05 10:24:50;;;;;;;25.40;18.42;;;;;;;;;;5075198;28;20383;-81
2023/12/05 10:27:17;;;;;;;24.58;17.40;;;;;;;;;;5075956;28;20459;-81
2023/12/05 10:29:43;;;;;;;28.05;19.75;;;;;;;;;;5074210;28;20379;-81
2023/12/05 10:32:10;;;;;;;26.83;18.42;;;;;;;;;;5074251;28;20380;-81
2023/12/05 10:34:57;;;;;;;25.67;18.38;;;;;;;;;;5073388;28;20383;-81
2023/12/05 10:37:28;;;;;;;22.30;16.73;;;;;;;;;;5074315;28;20383;-81
2023/12/05 10:39:55;;;;;;;19.55;14.60;;;;;;;;;;5074970;28;20375;-81
2023/12/05 10:42:21;;;;;;;16.90;12.30;;;;;;;;;;5075298;28;20380;-82
2023/12/05 10:44:47;;;;;;;12.07;10.77;;;;;;;;;;5075939;28;20407;-81
2023/12/05 10:47:14;;;;;;;10.82;9.70;;;;;;;;;;5074936;28;20415;-81
2023/12/05 10:49:43;;;;;;;8.90;8.00;;;;;;;;;;5075645;28;20379;-81
2023/12/05 10:52:11;;;;;;;7.10;6.40;;;;;;;;;;5074925;28;20464;-81
2023/12/05 10:54:39;;;;;;;7.15;6.47;;;;;;;;;;5072936;28;20380;-81
2023/12/05 10:57:09;;;;;;;6.75;6.05;;;;;;;;;;5075430;28;20528;-81
2023/12/05 10:59:35;;;;;;;7.65;6.03;;;;;;;;;;5074790;28;20383;-81
2023/12/05 11:02:14;;;;;;;6.37;5.77;;;;;;;;;;5074269;28;20746;-81
2023/12/05 11:04:41;;;;;;;7.38;6.65;;;;;;;;;;5074252;28;20505;-81
2023/12/05 11:07:08;;;;;;;7.70;6.90;;;;;;;;;;5073707;28;20376;-80
2023/12/05 11:09:34;;;;;;;8.57;7.68;;;;;;;;;;5074145;28;20383;-80
2023/12/05 11:12:02;;;;;;;8.45;7.65;;;;;;;;;;5074286;28;20410;-81
2023/12/05 11:14:30;;;;;;;9.68;8.35;;;;;;;;;;5073511;28;20757;-81
2023/12/05 11:16:57;;;;;;;10.05;9.02;;;;;;;;;;5072900;28;20424;-81
2023/12/05 11:19:34;;;;;;;8.35;7.55;;;;;;;;;;5072955;28;20390;-81
2023/12/05 11:22:15;;;;;;;8.50;7.05;;;;;;;;;;5054256;28;20906;-82
2023/12/05 11:25:00;;;;;;;8.25;7.32;;;;;;;;;;5058171;28;20388;-82
2023/12/05 11:27:34;;;;;;;8.07;7.28;;;;;;;;;;5064138;28;20444;-82
2023/12/05 11:30:11;;;;;;;7.57;6.78;;;;;;;;;;5065459;28;20409;-82
2023/12/05 11:32:56;;;;;;;8.18;7.25;;;;;;;;;;5060890;28;20373;-82
2023/12/05 11:35:47;;;;;;;7.72;6.93;;;;;;;;;;5059615;28;20412;-82
2023/12/05 11:38:14;;;;;;;7.00;6.30;;;;;;;;;;5056821;28;20394;-82
2023/12/05 11:40:41;;;;;;;7.35;6.65;;;;;;;;;;5058133;28;20389;-82
2023/12/05 11:43:08;;;;;;;8.93;7.97;;;;;;;;;;5058636;28;20389;-82
2023/12/05 11:45:40;;;;;;;8.73;7.78;;;;;;;;;;5058746;28;20377;-82
2023/12/05 11:48:06;;;;;;;7.13;6.43;;;;;;;;;;5059599;28;20481;-82
2023/12/05 11:50:39;;;;;;;7.80;6.25;;;;;;;;;;5060183;28;20389;-82
2023/12/05 11:53:08;;;;;;;6.47;5.13;;;;;;;;;;5060821;28;20392;-82
2023/12/05 11:55:34;;;;;;;4.85;4.45;;;;;;;;;;5059551;28;20435;-82
2023/12/05 11:58:00;;;;;;;7.35;4.85;;;;;;;;;;5062032;28;20377;-82
2023/12/05 12:00:26;;;;;;;5.18;4.68;;;;;;;;;;5062926;28;20392;-83
2023/12/05 12:02:59;;;;;;;5.53;4.22;;;;;;;;;;5062253;28;20389;-82
2023/12/05 12:05:25;;;;;;;7.53;4.57;;;;;;;;;;5063076;28;20386;-82
2023/12/05 12:07:58;;;;;;;7.25;4.05;;;;;;;;;;5063648;28;20393;-82
2023/12/05 12:10:24;;;;;;;6.35;4.45;;;;;;;;;;5064948;28;20382;-82
2023/12/05 12:12:54;;;;;;;6.13;4.53;;;;;;;;;;5063565;28;20886;-82
2023/12/05 12:15:23;;;;;;;3.60;3.28;;;;;;;;;;5063773;28;20413;-82
2023/12/05 12:17:49;;;;;;;3.85;3.13;;;;;;;;;;5063226;28;20377;-82
2023/12/05 12:20:16;;;;;;;4.50;2.95;;;;;;;;;;5070168;28;20468;-82
2023/12/05 12:22:45;;;;;;;2.92;2.60;;;;;;;;;;5082191;28;20424;-82
2023/12/05 12:25:11;;;;;;;3.97;2.42;;;;;;;;;;5072349;28;20389;-82
2023/12/05 12:27:41;;;;;;;3.45;2.45;;;;;;;;;;5078062;28;20467;-83
2023/12/05 12:30:17;;;;;;;4.22;2.50;;;;;;;;;;5072058;28;20896;-83
2023/12/05 12:32:56;;;;;;;3.03;2.50;;;;;;;;;;5070422;28;20777;-82
2023/12/05 12:35:23;;;;;;;2.93;2.13;;;;;;;;;;5071163;28;20949;-83
2023/12/05 12:37:55;;;;;;;3.13;1.77;;;;;;;;;;5070663;28;20381;-83
2023/12/05 12:40:21;;;;;;;2.70;1.80;;;;;;;;;;5071930;28;20476;-83
2023/12/05 12:42:50;;;;;;;2.40;1.70;;;;;;;;;;5073817;28;20387;-83
2023/12/05 12:45:16;;;;;;;2.33;1.30;;;;;;;;;;5071466;28;20448;-83
2023/12/05 12:47:42;;;;;;;2.35;1.65;;;;;;;;;;5060122;28;20773;-83
2023/12/05 12:50:08;;;;;;;3.30;1.38;;;;;;;;;;5073983;28;20391;-83
2023/12/05 12:52:35;;;;;;;2.10;1.50;;;;;;;;;;5074315;28;20381;-83
2023/12/05 12:55:01;;;;;;;2.17;1.90;;;;;;;;;;5070386;28;20416;-83
2023/12/05 12:57:27;;;;;;;4.20;1.98;;;;;;;;;;5071134;28;20389;-83
2023/12/05 12:59:56;;;;;;;3.42;2.13;;;;;;;;;;5049388;28;20768;-83
2023/12/05 13:02:25;;;;;;;2.72;1.70;;;;;;;;;;5062578;28;20377;-83
2023/12/05 13:04:54;;;;;;;3.95;2.00;;;;;;;;;;5073393;28;20443;-83
2023/12/05 13:07:24;;;;;;;2.55;1.70;;;;;;;;;;5080277;28;20421;-83
2023/12/05 13:09:50;;;;;;;2.67;1.60;;;;;;;;;;5073673;28;20375;-82
2023/12/05 13:12:16;;;;;;;3.40;1.98;;;;;;;;;;5085328;28;20401;-84
2023/12/05 13:14:47;;;;;;;4.40;2.00;;;;;;;;;;5099199;28;20374;-83
2023/12/05 13:17:14;;;;;;;2.83;1.08;;;;;;;;;;5098704;28;20836;-84
2023/12/05 13:19:40;;;;;;;4.20;1.40;;;;;;;;;;5100052;28;20384;-84
2023/12/05 13:22:06;;;;;;;3.20;1.50;;;;;;;;;;5099262;28;20379;-84
2023/12/05 13:24:32;;;;;;;2.55;1.55;;;;;;;;;;5099504;28;20381;-85
2023/12/05 13:26:58;;;;;;;5.07;1.75;;;;;;;;;;5099191;28;20891;-84
2023/12/05 13:29:24;;;;;;;3.40;1.40;;;;;;;;;;5098712;28;20374;-84
2023/12/05 13:31:50;;;;;;;2.95;1.20;;;;;;;;;;5099529;28;21070;-85
2023/12/05 13:34:16;;;;;;;3.42;1.55;;;;;;;;;;5098356;28;20485;-84
2023/12/05 13:36:43;;;;;;;2.90;1.17;;;;;;;;;;5098552;28;20397;-84
2023/12/05 13:39:09;;;;;;;3.72;1.70;;;;;;;;;;5098266;28;20371;-84
2023/12/05 13:41:35;;;;;;;4.93;1.92;;;;;;;;;;5097446;28;20755;-84
2023/12/05 13:44:01;;;;;;;4.55;2.05;;;;;;;;;;5097462;28;20378;-84
2023/12/05 13:46:28;;;;;;;5.13;2.15;;;;;;;;;;5096398;28;20413;-84
2023/12/05 13:49:01;;;;;;;3.67;2.13;;;;;;;;;;5097723;28;20385;-84
2023/12/05 13:51:34;;;;;;;4.68;1.98;;;;;;;;;;5098194;28;20370;-84
2023/12/05 13:54:03;;;;;;;5.32;2.13;;;;;;;;;;5097697;28;20401;-84
2023/12/05 13:56:30;;;;;;;5.65;2.30;;;;;;;;;;5097670;28;20764;-84
2023/12/05 13:58:58;;;;;;;4.70;2.08;;;;;;;;;;5097356;28;20920;-84
2023/12/05 14:01:24;;;;;;;4.87;2.00;;;;;;;;;;5097602;28;20385;-84
2023/12/05 14:03:50;;;;;;;5.53;2.42;;;;;;;;;;5097336;28;20373;-84
2023/12/05 14:06:16;;;;;;;4.93;1.98;;;;;;;;;;5097875;28;20378;-84
2023/12/05 14:08:42;;;;;;;3.03;2.15;;;;;;;;;;5097694;28;20379;-84
2023/12/05 14:11:08;;;;;;;3.88;2.22;;;;;;;;;;5098044;28;20431;-83
2023/12/05 14:13:34;;;;;;;5.10;2.08;;;;;;;;;;5097638;28;20371;-84
2023/12/05 14:16:01;;;;;;;4.68;1.95;;;;;;;;;;5097915;28;20400;-84
2023/12/05 14:18:26;;;;;;;2.97;1.60;;;;;;;;;;5098413;28;20374;-84
2023/12/05 14:20:52;;;;;;;3.92;1.70;;;;;;;;;;5097972;28;20433;-84
2023/12/05 14:23:19;;;;;;;3.15;1.50;;;;;;;;;;5097857;28;20381;-84